sensor_id;sensor_type;location;lat;lon;timestamp;P1;durP1;ratioP1;P2;durP2;ratioP2
19193;SDS011;9729;52.296;13.260;2023-07-29T00:01:33;13.80;;;9.53;;
19193;SDS011;9729;52.296;13.260;2023-07-29T00:04:00;14.33;;;10.23;;
19193;SDS011;9729;52.296;13.260;2023-07-29T00:06:26;11.60;;;10.50;;
19193;SDS011;9729;52.296;13.260;2023-07-29T00:08:52;11.97;;;9.57;;
19193;SDS011;9729;52.296;13.260;2023-07-29T00:11:19;13.60;;;9.37;;
19193;SDS011;9729;52.296;13.260;2023-07-29T00:13:45;10.83;;;9.30;;
19193;SDS011;9729;52.296;13.260;2023-07-29T00:16:12;11.70;;;10.47;;
19193;SDS011;9729;52.296;13.260;2023-07-29T00:18:41;10.83;;;9.73;;
19193;SDS011;9729;52.296;13.260;2023-07-29T00:21:08;11.50;;;10.27;;
19193;SDS011;9729;52.296;13.260;2023-07-29T00:23:34;12.83;;;10.27;;
19193;SDS011;9729;52.296;13.260;2023-07-29T00:26:01;30.13;;;10.30;;
19193;SDS011;9729;52.296;13.260;2023-07-29T00:28:27;12.73;;;10.93;;
19193;SDS011;9729;52.296;13.260;2023-07-29T00:30:53;15.37;;;11.10;;
19193;SDS011;9729;52.296;13.260;2023-07-29T00:33:20;14.50;;;10.50;;
19193;SDS011;9729;52.296;13.260;2023-07-29T00:35:48;12.00;;;10.70;;
19193;SDS011;9729;52.296;13.260;2023-07-29T00:38:14;13.90;;;10.47;;
19193;SDS011;9729;52.296;13.260;2023-07-29T00:40:41;15.57;;;10.93;;
19193;SDS011;9729;52.296;13.260;2023-07-29T00:43:07;13.10;;;11.00;;
19193;SDS011;9729;52.296;13.260;2023-07-29T00:45:34;15.47;;;10.93;;
19193;SDS011;9729;52.296;13.260;2023-07-29T00:48:01;15.73;;;11.03;;
19193;SDS011;9729;52.296;13.260;2023-07-29T00:50:27;12.47;;;11.17;;
19193;SDS011;9729;52.296;13.260;2023-07-29T00:52:56;12.57;;;11.20;;
19193;SDS011;9729;52.296;13.260;2023-07-29T00:55:23;17.63;;;10.37;;
19193;SDS011;9729;52.296;13.260;2023-07-29T00:57:49;15.70;;;10.90;;
19193;SDS011;9729;52.296;13.260;2023-07-29T01:00:19;26.20;;;11.67;;
19193;SDS011;9729;52.296;13.260;2023-07-29T01:02:46;16.20;;;10.93;;
19193;SDS011;9729;52.296;13.260;2023-07-29T01:05:12;14.67;;;11.17;;
19193;SDS011;9729;52.296;13.260;2023-07-29T01:07:43;13.07;;;9.87;;
19193;SDS011;9729;52.296;13.260;2023-07-29T01:10:15;12.10;;;10.27;;
19193;SDS011;9729;52.296;13.260;2023-07-29T01:12:48;12.43;;;10.37;;
19193;SDS011;9729;52.296;13.260;2023-07-29T01:15:20;14.10;;;10.47;;
19193;SDS011;9729;52.296;13.260;2023-07-29T01:17:49;14.50;;;10.30;;
19193;SDS011;9729;52.296;13.260;2023-07-29T01:20:19;12.57;;;9.87;;
19193;SDS011;9729;52.296;13.260;2023-07-29T01:22:45;12.17;;;10.87;;
19193;SDS011;9729;52.296;13.260;2023-07-29T01:25:14;14.57;;;9.87;;
19193;SDS011;9729;52.296;13.260;2023-07-29T01:27:41;13.77;;;11.03;;
19193;SDS011;9729;52.296;13.260;2023-07-29T01:30:09;16.70;;;11.63;;
19193;SDS011;9729;52.296;13.260;2023-07-29T01:32:37;12.13;;;10.83;;
19193;SDS011;9729;52.296;13.260;2023-07-29T01:35:09;16.27;;;10.87;;
19193;SDS011;9729;52.296;13.260;2023-07-29T01:37:39;14.87;;;11.10;;
19193;SDS011;9729;52.296;13.260;2023-07-29T01:40:07;17.23;;;10.83;;
19193;SDS011;9729;52.296;13.260;2023-07-29T01:42:36;15.87;;;11.30;;
19193;SDS011;9729;52.296;13.260;2023-07-29T01:45:03;16.97;;;10.70;;
19193;SDS011;9729;52.296;13.260;2023-07-29T01:47:30;12.40;;;10.13;;
19193;SDS011;9729;52.296;13.260;2023-07-29T01:49:57;15.17;;;11.27;;
19193;SDS011;9729;52.296;13.260;2023-07-29T01:52:23;12.57;;;11.00;;
19193;SDS011;9729;52.296;13.260;2023-07-29T01:54:49;13.37;;;10.87;;
19193;SDS011;9729;52.296;13.260;2023-07-29T01:57:16;12.57;;;9.67;;
19193;SDS011;9729;52.296;13.260;2023-07-29T01:59:43;12.40;;;10.50;;
19193;SDS011;9729;52.296;13.260;2023-07-29T02:02:10;11.63;;;10.13;;
19193;SDS011;9729;52.296;13.260;2023-07-29T02:04:36;12.83;;;10.77;;
19193;SDS011;9729;52.296;13.260;2023-07-29T02:07:03;15.63;;;10.20;;
19193;SDS011;9729;52.296;13.260;2023-07-29T02:09:30;11.93;;;10.30;;
19193;SDS011;9729;52.296;13.260;2023-07-29T02:11:56;13.37;;;9.90;;
19193;SDS011;9729;52.296;13.260;2023-07-29T02:14:23;18.43;;;10.57;;
19193;SDS011;9729;52.296;13.260;2023-07-29T02:16:51;17.57;;;10.00;;
19193;SDS011;9729;52.296;13.260;2023-07-29T02:19:17;14.50;;;9.77;;
19193;SDS011;9729;52.296;13.260;2023-07-29T02:21:43;11.93;;;9.60;;
19193;SDS011;9729;52.296;13.260;2023-07-29T02:24:10;11.53;;;9.97;;
19193;SDS011;9729;52.296;13.260;2023-07-29T02:26:36;13.87;;;10.10;;
19193;SDS011;9729;52.296;13.260;2023-07-29T02:29:03;21.73;;;9.97;;
19193;SDS011;9729;52.296;13.260;2023-07-29T02:31:29;15.53;;;9.80;;
19193;SDS011;9729;52.296;13.260;2023-07-29T02:33:57;12.77;;;9.13;;
19193;SDS011;9729;52.296;13.260;2023-07-29T02:36:23;16.70;;;9.20;;
19193;SDS011;9729;52.296;13.260;2023-07-29T02:38:49;10.50;;;9.40;;
19193;SDS011;9729;52.296;13.260;2023-07-29T02:41:16;13.00;;;8.90;;
19193;SDS011;9729;52.296;13.260;2023-07-29T02:43:42;14.47;;;9.43;;
19193;SDS011;9729;52.296;13.260;2023-07-29T02:46:09;14.03;;;9.20;;
19193;SDS011;9729;52.296;13.260;2023-07-29T02:48:35;10.90;;;9.33;;
19193;SDS011;9729;52.296;13.260;2023-07-29T02:51:03;13.47;;;9.70;;
19193;SDS011;9729;52.296;13.260;2023-07-29T02:53:29;10.93;;;8.80;;
19193;SDS011;9729;52.296;13.260;2023-07-29T02:55:56;10.37;;;9.37;;
19193;SDS011;9729;52.296;13.260;2023-07-29T02:58:22;11.23;;;9.37;;
19193;SDS011;9729;52.296;13.260;2023-07-29T03:00:49;12.83;;;9.23;;
19193;SDS011;9729;52.296;13.260;2023-07-29T03:03:15;10.20;;;9.20;;
19193;SDS011;9729;52.296;13.260;2023-07-29T03:05:41;11.70;;;9.53;;
19193;SDS011;9729;52.296;13.260;2023-07-29T03:08:09;10.90;;;9.80;;
19193;SDS011;9729;52.296;13.260;2023-07-29T03:10:36;13.70;;;9.57;;
19193;SDS011;9729;52.296;13.260;2023-07-29T03:13:02;16.40;;;10.33;;
19193;SDS011;9729;52.296;13.260;2023-07-29T03:15:28;14.20;;;9.60;;
19193;SDS011;9729;52.296;13.260;2023-07-29T03:17:55;10.57;;;9.33;;
19193;SDS011;9729;52.296;13.260;2023-07-29T03:20:21;9.97;;;8.97;;
19193;SDS011;9729;52.296;13.260;2023-07-29T03:22:47;10.50;;;8.77;;
19193;SDS011;9729;52.296;13.260;2023-07-29T03:25:15;9.87;;;8.97;;
19193;SDS011;9729;52.296;13.260;2023-07-29T03:27:42;21.73;;;10.50;;
19193;SDS011;9729;52.296;13.260;2023-07-29T03:30:09;13.63;;;9.80;;
19193;SDS011;9729;52.296;13.260;2023-07-29T03:32:37;12.83;;;9.80;;
19193;SDS011;9729;52.296;13.260;2023-07-29T03:35:07;11.50;;;10.30;;
19193;SDS011;9729;52.296;13.260;2023-07-29T03:37:33;11.83;;;10.57;;
19193;SDS011;9729;52.296;13.260;2023-07-29T03:40:00;14.07;;;10.97;;
19193;SDS011;9729;52.296;13.260;2023-07-29T03:42:27;11.83;;;10.60;;
19193;SDS011;9729;52.296;13.260;2023-07-29T03:44:54;13.13;;;10.87;;
19193;SDS011;9729;52.296;13.260;2023-07-29T03:47:20;14.10;;;11.13;;
19193;SDS011;9729;52.296;13.260;2023-07-29T03:49:47;11.63;;;10.20;;
19193;SDS011;9729;52.296;13.260;2023-07-29T03:52:13;13.83;;;10.13;;
19193;SDS011;9729;52.296;13.260;2023-07-29T03:54:39;12.23;;;10.67;;
19193;SDS011;9729;52.296;13.260;2023-07-29T03:57:06;11.30;;;10.10;;
19193;SDS011;9729;52.296;13.260;2023-07-29T03:59:33;11.53;;;10.33;;
19193;SDS011;9729;52.296;13.260;2023-07-29T04:02:00;11.60;;;10.10;;
19193;SDS011;9729;52.296;13.260;2023-07-29T04:04:26;11.83;;;9.93;;
19193;SDS011;9729;52.296;13.260;2023-07-29T04:06:52;13.80;;;10.00;;
19193;SDS011;9729;52.296;13.260;2023-07-29T04:09:19;13.90;;;10.60;;
19193;SDS011;9729;52.296;13.260;2023-07-29T04:11:45;12.60;;;10.67;;
19193;SDS011;9729;52.296;13.260;2023-07-29T04:14:12;10.90;;;9.77;;
19193;SDS011;9729;52.296;13.260;2023-07-29T04:16:39;13.20;;;10.00;;
19193;SDS011;9729;52.296;13.260;2023-07-29T04:19:06;12.57;;;10.13;;
19193;SDS011;9729;52.296;13.260;2023-07-29T04:21:32;13.30;;;9.97;;
19193;SDS011;9729;52.296;13.260;2023-07-29T04:23:59;16.20;;;10.90;;
19193;SDS011;9729;52.296;13.260;2023-07-29T04:26:25;13.73;;;10.83;;
19193;SDS011;9729;52.296;13.260;2023-07-29T04:28:51;12.27;;;11.07;;
19193;SDS011;9729;52.296;13.260;2023-07-29T04:31:18;12.20;;;11.00;;
19193;SDS011;9729;52.296;13.260;2023-07-29T04:33:45;12.10;;;10.33;;
19193;SDS011;9729;52.296;13.260;2023-07-29T04:36:12;12.43;;;10.90;;
19193;SDS011;9729;52.296;13.260;2023-07-29T04:38:38;11.63;;;10.43;;
19193;SDS011;9729;52.296;13.260;2023-07-29T04:41:05;13.43;;;9.57;;
19193;SDS011;9729;52.296;13.260;2023-07-29T04:43:32;12.80;;;10.93;;
19193;SDS011;9729;52.296;13.260;2023-07-29T04:45:59;11.93;;;10.47;;
19193;SDS011;9729;52.296;13.260;2023-07-29T04:48:25;14.30;;;9.80;;
19193;SDS011;9729;52.296;13.260;2023-07-29T04:50:53;13.23;;;9.93;;
19193;SDS011;9729;52.296;13.260;2023-07-29T04:53:19;11.47;;;10.33;;
19193;SDS011;9729;52.296;13.260;2023-07-29T04:55:45;10.73;;;9.17;;
19193;SDS011;9729;52.296;13.260;2023-07-29T04:58:12;11.70;;;9.47;;
19193;SDS011;9729;52.296;13.260;2023-07-29T05:00:38;13.20;;;10.67;;
19193;SDS011;9729;52.296;13.260;2023-07-29T05:03:05;11.17;;;9.83;;
19193;SDS011;9729;52.296;13.260;2023-07-29T05:05:31;12.50;;;10.50;;
19193;SDS011;9729;52.296;13.260;2023-07-29T05:07:59;22.07;;;10.43;;
19193;SDS011;9729;52.296;13.260;2023-07-29T05:10:25;10.43;;;9.43;;
19193;SDS011;9729;52.296;13.260;2023-07-29T05:12:52;11.60;;;8.87;;
19193;SDS011;9729;52.296;13.260;2023-07-29T05:15:18;10.57;;;9.47;;
19193;SDS011;9729;52.296;13.260;2023-07-29T05:17:45;11.60;;;9.50;;
19193;SDS011;9729;52.296;13.260;2023-07-29T05:20:11;9.37;;;8.43;;
19193;SDS011;9729;52.296;13.260;2023-07-29T05:22:37;11.70;;;8.90;;
19193;SDS011;9729;52.296;13.260;2023-07-29T05:25:06;11.07;;;9.10;;
19193;SDS011;9729;52.296;13.260;2023-07-29T05:27:33;12.10;;;10.50;;
19193;SDS011;9729;52.296;13.260;2023-07-29T05:29:59;13.90;;;9.23;;
19193;SDS011;9729;52.296;13.260;2023-07-29T05:32:26;12.80;;;10.50;;
19193;SDS011;9729;52.296;13.260;2023-07-29T05:34:52;10.23;;;9.30;;
19193;SDS011;9729;52.296;13.260;2023-07-29T05:37:18;12.80;;;9.27;;
19193;SDS011;9729;52.296;13.260;2023-07-29T05:39:45;11.57;;;10.43;;
19193;SDS011;9729;52.296;13.260;2023-07-29T05:42:13;9.33;;;8.40;;
19193;SDS011;9729;52.296;13.260;2023-07-29T05:44:39;8.47;;;7.67;;
19193;SDS011;9729;52.296;13.260;2023-07-29T05:47:05;8.27;;;7.57;;
19193;SDS011;9729;52.296;13.260;2023-07-29T05:49:32;9.57;;;8.60;;
19193;SDS011;9729;52.296;13.260;2023-07-29T05:51:58;8.73;;;7.87;;
19193;SDS011;9729;52.296;13.260;2023-07-29T05:54:25;12.03;;;8.23;;
19193;SDS011;9729;52.296;13.260;2023-07-29T05:56:51;8.67;;;7.97;;
19193;SDS011;9729;52.296;13.260;2023-07-29T05:59:19;9.77;;;7.90;;
19193;SDS011;9729;52.296;13.260;2023-07-29T06:01:45;11.10;;;8.37;;
19193;SDS011;9729;52.296;13.260;2023-07-29T06:04:11;9.20;;;8.30;;
19193;SDS011;9729;52.296;13.260;2023-07-29T06:06:38;8.93;;;7.10;;
19193;SDS011;9729;52.296;13.260;2023-07-29T06:09:04;8.40;;;7.43;;
19193;SDS011;9729;52.296;13.260;2023-07-29T06:11:30;7.90;;;7.20;;
19193;SDS011;9729;52.296;13.260;2023-07-29T06:13:57;8.50;;;7.70;;
19193;SDS011;9729;52.296;13.260;2023-07-29T06:16:24;8.67;;;7.87;;
19193;SDS011;9729;52.296;13.260;2023-07-29T06:18:51;8.17;;;7.40;;
19193;SDS011;9729;52.296;13.260;2023-07-29T06:21:18;7.60;;;6.27;;
19193;SDS011;9729;52.296;13.260;2023-07-29T06:23:45;6.03;;;5.53;;
19193;SDS011;9729;52.296;13.260;2023-07-29T06:26:11;6.80;;;6.23;;
19193;SDS011;9729;52.296;13.260;2023-07-29T06:28:38;6.13;;;5.53;;
19193;SDS011;9729;52.296;13.260;2023-07-29T06:31:04;6.70;;;6.00;;
19193;SDS011;9729;52.296;13.260;2023-07-29T06:33:32;5.90;;;5.40;;
19193;SDS011;9729;52.296;13.260;2023-07-29T06:35:58;8.20;;;5.90;;
19193;SDS011;9729;52.296;13.260;2023-07-29T06:38:25;7.07;;;5.67;;
19193;SDS011;9729;52.296;13.260;2023-07-29T06:40:51;6.00;;;5.40;;
19193;SDS011;9729;52.296;13.260;2023-07-29T06:43:17;7.27;;;5.27;;
19193;SDS011;9729;52.296;13.260;2023-07-29T06:45:44;5.23;;;4.83;;
19193;SDS011;9729;52.296;13.260;2023-07-29T06:48:10;5.23;;;4.80;;
19193;SDS011;9729;52.296;13.260;2023-07-29T06:50:38;4.73;;;4.30;;
19193;SDS011;9729;52.296;13.260;2023-07-29T06:53:04;6.67;;;5.17;;
19193;SDS011;9729;52.296;13.260;2023-07-29T06:55:31;5.80;;;4.73;;
19193;SDS011;9729;52.296;13.260;2023-07-29T06:57:57;6.70;;;4.90;;
19193;SDS011;9729;52.296;13.260;2023-07-29T07:00:23;4.73;;;4.33;;
19193;SDS011;9729;52.296;13.260;2023-07-29T07:02:50;6.10;;;4.77;;
19193;SDS011;9729;52.296;13.260;2023-07-29T07:05:16;4.40;;;4.10;;
19193;SDS011;9729;52.296;13.260;2023-07-29T07:07:44;6.73;;;4.17;;
19193;SDS011;9729;52.296;13.260;2023-07-29T07:10:10;5.23;;;4.13;;
19193;SDS011;9729;52.296;13.260;2023-07-29T07:12:37;6.63;;;4.23;;
19193;SDS011;9729;52.296;13.260;2023-07-29T07:15:03;5.97;;;5.17;;
19193;SDS011;9729;52.296;13.260;2023-07-29T07:17:30;4.20;;;3.90;;
19193;SDS011;9729;52.296;13.260;2023-07-29T07:19:56;4.90;;;4.57;;
19193;SDS011;9729;52.296;13.260;2023-07-29T07:22:23;4.20;;;3.83;;
19193;SDS011;9729;52.296;13.260;2023-07-29T07:24:51;7.53;;;4.73;;
19193;SDS011;9729;52.296;13.260;2023-07-29T07:27:17;4.60;;;4.20;;
19193;SDS011;9729;52.296;13.260;2023-07-29T07:29:44;4.50;;;4.10;;
19193;SDS011;9729;52.296;13.260;2023-07-29T07:32:10;3.90;;;3.60;;
19193;SDS011;9729;52.296;13.260;2023-07-29T07:34:36;4.37;;;3.97;;
19193;SDS011;9729;52.296;13.260;2023-07-29T07:37:03;4.20;;;3.80;;
19193;SDS011;9729;52.296;13.260;2023-07-29T07:39:29;4.60;;;4.20;;
19193;SDS011;9729;52.296;13.260;2023-07-29T07:41:58;6.53;;;3.60;;
19193;SDS011;9729;52.296;13.260;2023-07-29T07:44:24;3.70;;;3.40;;
19193;SDS011;9729;52.296;13.260;2023-07-29T07:46:51;3.60;;;3.30;;
19193;SDS011;9729;52.296;13.260;2023-07-29T07:49:18;4.50;;;3.40;;
19193;SDS011;9729;52.296;13.260;2023-07-29T07:51:44;4.27;;;3.20;;
19193;SDS011;9729;52.296;13.260;2023-07-29T07:54:11;3.00;;;2.80;;
19193;SDS011;9729;52.296;13.260;2023-07-29T07:56:37;3.37;;;3.07;;
19193;SDS011;9729;52.296;13.260;2023-07-29T07:59:05;3.77;;;3.20;;
19193;SDS011;9729;52.296;13.260;2023-07-29T08:01:33;6.50;;;3.13;;
19193;SDS011;9729;52.296;13.260;2023-07-29T08:04:01;3.22;;;3.03;;
19193;SDS011;9729;52.296;13.260;2023-07-29T08:06:27;3.53;;;3.30;;
19193;SDS011;9729;52.296;13.260;2023-07-29T08:08:53;3.17;;;2.73;;
19193;SDS011;9729;52.296;13.260;2023-07-29T08:11:20;3.10;;;2.90;;
19193;SDS011;9729;52.296;13.260;2023-07-29T08:13:46;3.53;;;2.80;;
19193;SDS011;9729;52.296;13.260;2023-07-29T08:16:14;3.10;;;2.90;;
19193;SDS011;9729;52.296;13.260;2023-07-29T08:18:40;5.03;;;3.10;;
19193;SDS011;9729;52.296;13.260;2023-07-29T08:21:06;3.33;;;3.03;;
19193;SDS011;9729;52.296;13.260;2023-07-29T08:23:33;3.50;;;3.30;;
19193;SDS011;9729;52.296;13.260;2023-07-29T08:26:01;6.60;;;3.20;;
19193;SDS011;9729;52.296;13.260;2023-07-29T08:28:30;3.15;;;2.85;;
19193;SDS011;9729;52.296;13.260;2023-07-29T08:30:57;3.05;;;2.75;;
19193;SDS011;9729;52.296;13.260;2023-07-29T08:33:25;3.13;;;2.92;;
19193;SDS011;9729;52.296;13.260;2023-07-29T08:35:52;2.97;;;2.78;;
19193;SDS011;9729;52.296;13.260;2023-07-29T08:38:18;3.60;;;2.78;;
19193;SDS011;9729;52.296;13.260;2023-07-29T08:40:45;4.60;;;2.80;;
19193;SDS011;9729;52.296;13.260;2023-07-29T08:43:16;2.83;;;2.63;;
19193;SDS011;9729;52.296;13.260;2023-07-29T08:45:45;2.53;;;2.30;;
19193;SDS011;9729;52.296;13.260;2023-07-29T08:48:12;2.92;;;2.72;;
19193;SDS011;9729;52.296;13.260;2023-07-29T08:50:40;4.28;;;3.05;;
19193;SDS011;9729;52.296;13.260;2023-07-29T08:53:07;6.85;;;3.25;;
19193;SDS011;9729;52.296;13.260;2023-07-29T08:55:34;2.90;;;2.60;;
19193;SDS011;9729;52.296;13.260;2023-07-29T08:58:00;2.83;;;2.63;;
19193;SDS011;9729;52.296;13.260;2023-07-29T09:00:27;2.85;;;2.60;;
19193;SDS011;9729;52.296;13.260;2023-07-29T09:02:53;2.60;;;2.40;;
19193;SDS011;9729;52.296;13.260;2023-07-29T09:05:20;3.38;;;3.17;;
19193;SDS011;9729;52.296;13.260;2023-07-29T09:07:48;5.10;;;2.75;;
19193;SDS011;9729;52.296;13.260;2023-07-29T09:10:15;3.67;;;2.80;;
19193;SDS011;9729;52.296;13.260;2023-07-29T09:12:41;3.17;;;2.90;;
19193;SDS011;9729;52.296;13.260;2023-07-29T09:15:08;3.05;;;2.58;;
19193;SDS011;9729;52.296;13.260;2023-07-29T09:17:35;4.28;;;3.22;;
19193;SDS011;9729;52.296;13.260;2023-07-29T09:20:01;4.88;;;2.92;;
19193;SDS011;9729;52.296;13.260;2023-07-29T09:22:30;2.50;;;2.38;;
19193;SDS011;9729;52.296;13.260;2023-07-29T09:24:58;2.83;;;2.65;;
19193;SDS011;9729;52.296;13.260;2023-07-29T09:27:24;5.93;;;2.78;;
19193;SDS011;9729;52.296;13.260;2023-07-29T09:29:52;2.53;;;2.33;;
19193;SDS011;9729;52.296;13.260;2023-07-29T09:32:18;2.83;;;2.28;;
19193;SDS011;9729;52.296;13.260;2023-07-29T09:34:45;7.13;;;2.47;;
19193;SDS011;9729;52.296;13.260;2023-07-29T09:37:15;2.75;;;2.40;;
19193;SDS011;9729;52.296;13.260;2023-07-29T09:39:43;2.63;;;2.30;;
19193;SDS011;9729;52.296;13.260;2023-07-29T09:42:12;2.80;;;2.22;;
19193;SDS011;9729;52.296;13.260;2023-07-29T09:44:43;2.10;;;2.00;;
19193;SDS011;9729;52.296;13.260;2023-07-29T09:47:09;2.28;;;2.13;;
19193;SDS011;9729;52.296;13.260;2023-07-29T09:49:35;2.60;;;2.40;;
19193;SDS011;9729;52.296;13.260;2023-07-29T09:52:02;3.63;;;2.35;;
19193;SDS011;9729;52.296;13.260;2023-07-29T09:54:30;6.32;;;2.63;;
19193;SDS011;9729;52.296;13.260;2023-07-29T09:56:56;2.30;;;2.13;;
19193;SDS011;9729;52.296;13.260;2023-07-29T09:59:24;3.05;;;2.38;;
19193;SDS011;9729;52.296;13.260;2023-07-29T10:01:50;2.60;;;2.38;;
19193;SDS011;9729;52.296;13.260;2023-07-29T10:04:17;2.40;;;2.25;;
19193;SDS011;9729;52.296;13.260;2023-07-29T10:06:44;2.20;;;2.08;;
19193;SDS011;9729;52.296;13.260;2023-07-29T10:09:12;6.18;;;2.75;;
19193;SDS011;9729;52.296;13.260;2023-07-29T10:11:38;2.17;;;2.05;;
19193;SDS011;9729;52.296;13.260;2023-07-29T10:14:05;2.47;;;2.30;;
19193;SDS011;9729;52.296;13.260;2023-07-29T10:16:33;2.42;;;2.22;;
19193;SDS011;9729;52.296;13.260;2023-07-29T10:19:00;5.20;;;2.55;;
19193;SDS011;9729;52.296;13.260;2023-07-29T10:21:27;2.63;;;2.42;;
19193;SDS011;9729;52.296;13.260;2023-07-29T10:23:54;2.78;;;2.58;;
19193;SDS011;9729;52.296;13.260;2023-07-29T10:26:23;2.30;;;2.20;;
19193;SDS011;9729;52.296;13.260;2023-07-29T10:28:50;3.50;;;2.45;;
19193;SDS011;9729;52.296;13.260;2023-07-29T10:31:18;2.10;;;2.00;;
19193;SDS011;9729;52.296;13.260;2023-07-29T10:33:46;3.75;;;2.53;;
19193;SDS011;9729;52.296;13.260;2023-07-29T10:36:13;2.33;;;2.13;;
19193;SDS011;9729;52.296;13.260;2023-07-29T10:38:39;4.30;;;3.03;;
19193;SDS011;9729;52.296;13.260;2023-07-29T10:41:06;2.60;;;2.40;;
19193;SDS011;9729;52.296;13.260;2023-07-29T10:43:33;2.78;;;2.58;;
19193;SDS011;9729;52.296;13.260;2023-07-29T10:46:14;2.53;;;2.33;;
19193;SDS011;9729;52.296;13.260;2023-07-29T10:48:41;3.15;;;2.72;;
19193;SDS011;9729;52.296;13.260;2023-07-29T10:51:26;2.70;;;2.50;;
19193;SDS011;9729;52.296;13.260;2023-07-29T10:53:55;2.85;;;2.55;;
19193;SDS011;9729;52.296;13.260;2023-07-29T10:56:29;2.50;;;2.30;;
19193;SDS011;9729;52.296;13.260;2023-07-29T10:58:56;4.05;;;3.00;;
19193;SDS011;9729;52.296;13.260;2023-07-29T11:01:27;4.55;;;3.10;;
19193;SDS011;9729;52.296;13.260;2023-07-29T11:07:02;6.80;;;2.92;;
19193;SDS011;9729;52.296;13.260;2023-07-29T11:09:51;5.30;;;2.97;;
19193;SDS011;9729;52.296;13.260;2023-07-29T11:12:36;5.43;;;2.83;;
19193;SDS011;9729;52.296;13.260;2023-07-29T11:15:17;6.05;;;3.33;;
19193;SDS011;9729;52.296;13.260;2023-07-29T11:17:46;3.50;;;2.80;;
19193;SDS011;9729;52.296;13.260;2023-07-29T11:20:13;3.28;;;2.97;;
19193;SDS011;9729;52.296;13.260;2023-07-29T11:22:42;7.57;;;3.00;;
19193;SDS011;9729;52.296;13.260;2023-07-29T11:25:09;8.30;;;3.15;;
19193;SDS011;9729;52.296;13.260;2023-07-29T11:27:37;7.95;;;3.08;;
19193;SDS011;9729;52.296;13.260;2023-07-29T11:30:04;6.45;;;3.00;;
19193;SDS011;9729;52.296;13.260;2023-07-29T11:32:33;7.82;;;2.60;;
19193;SDS011;9729;52.296;13.260;2023-07-29T11:35:04;3.67;;;2.42;;
19193;SDS011;9729;52.296;13.260;2023-07-29T11:37:32;5.85;;;3.40;;
19193;SDS011;9729;52.296;13.260;2023-07-29T11:40:00;3.20;;;2.90;;
19193;SDS011;9729;52.296;13.260;2023-07-29T11:42:27;5.35;;;3.35;;
19193;SDS011;9729;52.296;13.260;2023-07-29T11:44:55;2.53;;;2.33;;
19193;SDS011;9729;52.296;13.260;2023-07-29T11:47:22;5.03;;;3.20;;
19193;SDS011;9729;52.296;13.260;2023-07-29T11:49:48;5.32;;;2.90;;
19193;SDS011;9729;52.296;13.260;2023-07-29T11:52:15;3.57;;;3.17;;
19193;SDS011;9729;52.296;13.260;2023-07-29T11:54:43;3.40;;;3.20;;
19193;SDS011;9729;52.296;13.260;2023-07-29T11:57:11;6.80;;;3.05;;
19193;SDS011;9729;52.296;13.260;2023-07-29T11:59:38;9.57;;;3.78;;
19193;SDS011;9729;52.296;13.260;2023-07-29T12:02:07;3.83;;;3.47;;
19193;SDS011;9729;52.296;13.260;2023-07-29T12:04:35;5.10;;;3.20;;
19193;SDS011;9729;52.296;13.260;2023-07-29T12:07:02;5.73;;;3.77;;
19193;SDS011;9729;52.296;13.260;2023-07-29T12:09:29;6.73;;;4.23;;
19193;SDS011;9729;52.296;13.260;2023-07-29T12:11:56;9.30;;;4.10;;
19193;SDS011;9729;52.296;13.260;2023-07-29T12:14:25;7.77;;;3.47;;
19193;SDS011;9729;52.296;13.260;2023-07-29T12:16:51;2.90;;;2.70;;
19193;SDS011;9729;52.296;13.260;2023-07-29T12:19:18;5.13;;;2.90;;
19193;SDS011;9729;52.296;13.260;2023-07-29T12:21:47;3.53;;;2.80;;
19193;SDS011;9729;52.296;13.260;2023-07-29T12:24:13;4.57;;;2.67;;
19193;SDS011;9729;52.296;13.260;2023-07-29T12:26:40;3.20;;;3.00;;
19193;SDS011;9729;52.296;13.260;2023-07-29T12:29:13;5.53;;;2.83;;
19193;SDS011;9729;52.296;13.260;2023-07-29T12:31:41;7.80;;;2.20;;
19193;SDS011;9729;52.296;13.260;2023-07-29T12:34:08;3.80;;;2.60;;
19193;SDS011;9729;52.296;13.260;2023-07-29T12:36:41;3.07;;;2.40;;
19193;SDS011;9729;52.296;13.260;2023-07-29T12:39:15;2.73;;;2.20;;
19193;SDS011;9729;52.296;13.260;2023-07-29T12:41:42;3.97;;;2.70;;
19193;SDS011;9729;52.296;13.260;2023-07-29T12:44:08;3.27;;;2.20;;
19193;SDS011;9729;52.296;13.260;2023-07-29T12:46:35;2.60;;;2.40;;
19193;SDS011;9729;52.296;13.260;2023-07-29T12:49:02;5.10;;;2.30;;
19193;SDS011;9729;52.296;13.260;2023-07-29T12:51:29;3.67;;;2.20;;
19193;SDS011;9729;52.296;13.260;2023-07-29T12:53:56;4.27;;;2.40;;
19193;SDS011;9729;52.296;13.260;2023-07-29T12:56:22;5.27;;;2.20;;
19193;SDS011;9729;52.296;13.260;2023-07-29T12:58:48;3.37;;;2.30;;
19193;SDS011;9729;52.296;13.260;2023-07-29T13:01:15;1.93;;;1.83;;
19193;SDS011;9729;52.296;13.260;2023-07-29T13:03:43;2.17;;;2.00;;
19193;SDS011;9729;52.296;13.260;2023-07-29T13:06:11;2.13;;;2.03;;
19193;SDS011;9729;52.296;13.260;2023-07-29T13:08:37;1.90;;;1.80;;
19193;SDS011;9729;52.296;13.260;2023-07-29T13:11:04;1.80;;;1.70;;
19193;SDS011;9729;52.296;13.260;2023-07-29T13:13:31;2.13;;;1.80;;
19193;SDS011;9729;52.296;13.260;2023-07-29T13:15:58;2.10;;;1.90;;
19193;SDS011;9729;52.296;13.260;2023-07-29T13:18:24;3.30;;;2.47;;
19193;SDS011;9729;52.296;13.260;2023-07-29T13:20:50;6.37;;;2.33;;
19193;SDS011;9729;52.296;13.260;2023-07-29T13:23:18;2.93;;;1.97;;
19193;SDS011;9729;52.296;13.260;2023-07-29T13:25:45;2.27;;;2.00;;
19193;SDS011;9729;52.296;13.260;2023-07-29T13:28:11;3.07;;;2.27;;
19193;SDS011;9729;52.296;13.260;2023-07-29T13:30:38;2.67;;;2.10;;
19193;SDS011;9729;52.296;13.260;2023-07-29T13:33:05;3.73;;;1.90;;
19193;SDS011;9729;52.296;13.260;2023-07-29T13:35:32;2.80;;;1.90;;
19193;SDS011;9729;52.296;13.260;2023-07-29T13:37:58;4.10;;;2.20;;
19193;SDS011;9729;52.296;13.260;2023-07-29T13:40:26;5.63;;;2.90;;
19193;SDS011;9729;52.296;13.260;2023-07-29T13:42:53;1.92;;;1.83;;
19193;SDS011;9729;52.296;13.260;2023-07-29T13:45:19;2.03;;;1.83;;
19193;SDS011;9729;52.296;13.260;2023-07-29T13:47:46;1.88;;;1.77;;
19193;SDS011;9729;52.296;13.260;2023-07-29T13:50:12;2.50;;;2.00;;
19193;SDS011;9729;52.296;13.260;2023-07-29T13:52:39;2.47;;;1.67;;
19193;SDS011;9729;52.296;13.260;2023-07-29T13:55:05;2.03;;;1.88;;
19193;SDS011;9729;52.296;13.260;2023-07-29T13:57:33;2.00;;;1.80;;
19193;SDS011;9729;52.296;13.260;2023-07-29T14:00:00;3.28;;;1.90;;
19193;SDS011;9729;52.296;13.260;2023-07-29T14:02:27;1.70;;;1.60;;
19193;SDS011;9729;52.296;13.260;2023-07-29T14:04:53;3.05;;;2.08;;
19193;SDS011;9729;52.296;13.260;2023-07-29T14:07:19;3.72;;;1.92;;
19193;SDS011;9729;52.296;13.260;2023-07-29T14:09:46;4.30;;;2.22;;
19193;SDS011;9729;52.296;13.260;2023-07-29T14:12:12;2.17;;;2.03;;
19193;SDS011;9729;52.296;13.260;2023-07-29T14:14:42;2.28;;;2.00;;
19193;SDS011;9729;52.296;13.260;2023-07-29T14:17:08;2.28;;;2.08;;
19193;SDS011;9729;52.296;13.260;2023-07-29T14:19:35;4.07;;;2.05;;
19193;SDS011;9729;52.296;13.260;2023-07-29T14:22:01;2.30;;;2.20;;
19193;SDS011;9729;52.296;13.260;2023-07-29T14:24:27;6.25;;;2.25;;
19193;SDS011;9729;52.296;13.260;2023-07-29T14:26:54;3.28;;;2.00;;
19193;SDS011;9729;52.296;13.260;2023-07-29T14:29:20;2.30;;;2.20;;
19193;SDS011;9729;52.296;13.260;2023-07-29T14:31:48;3.67;;;2.28;;
19193;SDS011;9729;52.296;13.260;2023-07-29T14:34:14;1.90;;;1.80;;
19193;SDS011;9729;52.296;13.260;2023-07-29T14:36:41;2.53;;;2.33;;
19193;SDS011;9729;52.296;13.260;2023-07-29T14:39:07;1.92;;;1.83;;
19193;SDS011;9729;52.296;13.260;2023-07-29T14:41:34;5.78;;;2.20;;
19193;SDS011;9729;52.296;13.260;2023-07-29T14:44:00;2.70;;;2.50;;